Time;durP1;ratioP1;P1;durP2;ratioP2;P2;SDS_P1;SDS_P2;PMS_P1;PMS_P2;Temp;Humidity;BMP_temperature;BMP_pressure;BME280_temperature;BME280_humidity;BME280_pressure;Samples;Min_cycle;Max_cycle;Signal;HPM_P1;HPM_P2
2022/03/17 00:00:26;;;;;;;16.50;15.00;;;10.10;54.50;;;;;;6230539;28;20956;-62
2022/03/17 00:03:33;;;;;;;17.00;15.30;;;10.10;54.20;;;;;;6273283;28;20538;-61
2022/03/17 00:06:36;;;;;;;17.80;15.90;;;10.20;53.40;;;;;;6251957;28;20475;-62
2022/03/17 00:09:39;;;;;;;18.23;16.37;;;10.20;53.00;;;;;;6249632;28;20465;-61
2022/03/17 00:12:43;;;;;;;17.57;15.77;;;10.20;52.80;;;;;;6249595;28;20795;-61
2022/03/17 00:15:48;;;;;;;18.00;16.10;;;10.30;52.60;;;;;;6247404;28;20470;-61
2022/03/17 00:18:52;;;;;;;20.33;16.00;;;10.30;52.40;;;;;;6239165;28;20533;-61
2022/03/17 00:21:56;;;;;;;18.27;16.53;;;10.30;52.30;;;;;;6250535;28;20484;-62
2022/03/17 00:25:00;;;;;;;17.80;16.00;;;10.30;52.30;;;;;;6250585;28;20477;-62
2022/03/17 00:28:03;;;;;;;18.97;16.97;;;10.20;52.50;;;;;;6250488;28;20470;-62
2022/03/17 00:31:06;;;;;;;17.93;16.17;;;10.10;52.80;;;;;;6250365;28;20486;-62
2022/03/17 00:34:10;;;;;;;19.03;17.03;;;10.00;53.10;;;;;;6250342;28;20519;-62
2022/03/17 00:37:14;;;;;;;21.10;18.50;;;9.90;54.10;;;;;;6236441;28;20490;-61
2022/03/17 00:40:17;;;;;;;20.13;17.33;;;9.80;54.50;;;;;;6213085;28;20482;-61
2022/03/17 00:43:22;;;;;;;18.50;16.60;;;9.80;55.00;;;;;;6228431;28;20480;-61
2022/03/17 00:46:26;;;;;;;18.57;16.63;;;9.70;55.10;;;;;;6229536;28;20487;-61
2022/03/17 00:49:30;;;;;;;17.30;15.40;;;9.70;55.30;;;;;;6229632;28;20489;-62
2022/03/17 00:52:33;;;;;;;18.40;16.50;;;9.60;55.70;;;;;;6228759;28;20479;-62
2022/03/17 00:55:36;;;;;;;20.33;18.33;;;9.50;56.00;;;;;;6229862;28;20478;-62
2022/03/17 00:58:40;;;;;;;19.83;17.77;;;9.50;56.30;;;;;;6232127;28;20490;-62
2022/03/17 01:01:43;;;;;;;22.87;18.97;;;9.50;56.70;;;;;;6233826;28;20928;-62
2022/03/17 01:04:48;;;;;;;19.30;17.30;;;9.40;57.00;;;;;;6238610;28;20475;-62
2022/03/17 01:07:52;;;;;;;19.23;17.27;;;9.40;57.40;;;;;;6234011;28;20471;-62
2022/03/17 01:10:56;;;;;;;18.93;16.93;;;9.30;57.60;;;;;;6231005;28;20478;-62
2022/03/17 01:13:59;;;;;;;21.67;19.47;;;9.20;57.90;;;;;;6228865;28;20483;-61
2022/03/17 01:17:02;;;;;;;20.23;18.03;;;9.20;58.30;;;;;;6231177;28;20995;-62
2022/03/17 01:20:08;;;;;;;19.80;17.70;;;9.10;58.50;;;;;;6232176;28;20819;-61
2022/03/17 01:23:11;;;;;;;20.33;18.17;;;9.10;58.90;;;;;;6232926;28;20471;-61
2022/03/17 01:26:15;;;;;;;20.07;17.87;;;9.00;59.00;;;;;;6231254;28;20473;-62
2022/03/17 01:29:19;;;;;;;18.87;16.97;;;9.00;59.30;;;;;;6229650;28;20486;-61
2022/03/17 01:32:25;;;;;;;24.10;18.50;;;8.90;59.40;;;;;;6228924;28;20962;-60
2022/03/17 01:35:29;;;;;;;20.50;17.93;;;8.90;59.60;;;;;;6229337;28;20793;-60
2022/03/17 01:38:33;;;;;;;23.13;17.93;;;8.80;59.60;;;;;;6253355;28;20478;-61
2022/03/17 01:41:38;;;;;;;21.40;18.90;;;8.80;59.80;;;;;;6253688;28;20480;-61
2022/03/17 01:44:41;;;;;;;20.13;17.67;;;8.80;59.90;;;;;;6248565;28;20469;-61
2022/03/17 01:47:45;;;;;;;19.63;17.07;;;8.70;60.00;;;;;;6253062;28;20494;-62
2022/03/17 01:50:50;;;;;;;19.77;17.73;;;8.70;60.30;;;;;;6253311;28;20485;-61
2022/03/17 01:53:53;;;;;;;18.97;17.10;;;8.60;60.70;;;;;;6252900;28;20474;-62
2022/03/17 01:56:58;;;;;;;20.53;18.40;;;8.60;61.20;;;;;;6253206;28;20476;-62
2022/03/17 02:00:04;;;;;;;21.10;18.80;;;8.50;61.50;;;;;;6252761;28;20482;-61
2022/03/17 02:03:08;;;;;;;20.60;18.40;;;8.40;61.80;;;;;;6228487;28;20474;-61
2022/03/17 02:06:13;;;;;;;20.70;18.07;;;8.40;62.20;;;;;;6245694;28;20469;-63
2022/03/17 02:09:16;;;;;;;21.10;18.90;;;8.30;62.80;;;;;;6252698;28;21051;-62
2022/03/17 02:15:40;;;;;;;23.37;18.57;;;8.20;63.10;;;;;;6252873;28;20458;-62
2022/03/17 02:18:46;;;;;;;20.53;17.60;;;8.10;63.60;;;;;;6252437;28;20469;-62
2022/03/17 02:21:51;;;;;;;22.37;19.30;;;8.10;63.90;;;;;;6253051;28;20591;-62
2022/03/17 02:28:18;;;;;;;21.43;19.13;;;8.00;64.70;;;;;;6252091;28;20566;-61
2022/03/17 02:31:21;;;;;;;24.17;20.93;;;8.00;65.00;;;;;;6252416;28;20484;-61
2022/03/17 02:34:24;;;;;;;22.83;18.87;;;7.90;65.30;;;;;;6252414;28;20483;-61
2022/03/17 02:37:27;;;;;;;25.60;19.00;;;7.90;65.30;;;;;;6252109;28;20480;-62
2022/03/17 02:40:33;;;;;;;21.00;18.80;;;7.90;65.40;;;;;;6251873;28;20548;-62
2022/03/17 02:43:37;;;;;;;21.50;18.70;;;7.80;65.60;;;;;;6251890;28;20489;-62
2022/03/17 02:46:40;;;;;;;21.83;19.63;;;7.80;65.70;;;;;;6252450;28;20473;-61
2022/03/17 02:49:43;;;;;;;22.43;20.20;;;7.80;65.90;;;;;;6243956;28;20499;-61
2022/03/17 02:52:46;;;;;;;25.20;20.90;;;7.70;66.00;;;;;;6251997;28;20477;-62
2022/03/17 02:55:51;;;;;;;21.53;19.33;;;7.70;66.20;;;;;;6251946;28;20468;-62
2022/03/17 02:58:54;;;;;;;22.27;19.97;;;7.70;66.30;;;;;;6251949;28;20493;-61
2022/03/17 03:01:57;;;;;;;23.63;19.50;;;7.60;66.70;;;;;;6267970;28;20527;-61
2022/03/17 03:05:00;;;;;;;24.57;20.97;;;7.60;67.00;;;;;;6268548;28;20472;-61
2022/03/17 03:08:04;;;;;;;24.03;21.20;;;7.60;67.30;;;;;;6251573;28;20824;-61
2022/03/17 03:11:08;;;;;;;23.70;21.13;;;7.60;67.30;;;;;;6251590;28;20490;-62
2022/03/17 03:14:12;;;;;;;23.80;21.03;;;7.60;67.30;;;;;;6251805;28;20460;-61
2022/03/17 03:17:15;;;;;;;26.37;20.90;;;7.60;67.60;;;;;;6251694;28;20487;-62
2022/03/17 03:20:19;;;;;;;26.87;23.27;;;7.60;67.80;;;;;;6251785;28;20479;-62
2022/03/17 03:23:22;;;;;;;25.60;22.00;;;7.50;67.80;;;;;;6251031;28;20502;-62
2022/03/17 03:26:26;;;;;;;27.00;22.63;;;7.50;67.90;;;;;;6250849;28;20535;-62
2022/03/17 03:29:30;;;;;;;23.37;20.80;;;7.50;68.40;;;;;;6250750;28;20794;-62
2022/03/17 03:32:33;;;;;;;24.40;21.87;;;7.30;68.60;;;;;;6250816;28;20481;-62
2022/03/17 03:38:58;;;;;;;26.30;22.57;;;7.40;69.70;;;;;;6249726;28;20808;-62
2022/03/17 03:42:03;;;;;;;28.30;24.03;;;7.30;69.30;;;;;;6250566;28;20480;-62
2022/03/17 03:45:07;;;;;;;30.13;23.00;;;7.30;69.50;;;;;;6250845;28;20471;-62
2022/03/17 03:48:10;;;;;;;26.97;23.70;;;7.20;69.70;;;;;;6250242;28;21010;-62
2022/03/17 03:51:13;;;;;;;26.27;22.53;;;7.20;70.30;;;;;;6250532;28;21094;-62
2022/03/17 03:54:19;;;;;;;26.17;23.27;;;7.10;70.40;;;;;;6240814;28;20475;-62
2022/03/17 03:57:24;;;;;;;27.53;24.57;;;7.10;70.70;;;;;;6250276;28;20476;-62
2022/03/17 04:00:34;;;;;;;26.70;22.00;;;7.00;70.70;;;;;;6253318;28;20532;-62
2022/03/17 04:03:37;;;;;;;25.70;22.57;;;7.00;70.90;;;;;;6274652;28;20456;-62
2022/03/17 04:06:42;;;;;;;28.50;23.70;;;6.90;70.90;;;;;;6253386;28;20444;-62
2022/03/17 04:09:45;;;;;;;25.80;21.10;;;6.90;71.60;;;;;;6249802;28;20468;-62
2022/03/17 04:12:50;;;;;;;31.13;23.10;;;6.90;71.60;;;;;;6250437;28;20483;-62
2022/03/17 04:15:53;;;;;;;29.27;22.90;;;6.90;71.60;;;;;;6250076;28;20487;-62
2022/03/17 04:18:56;;;;;;;26.93;23.73;;;6.90;71.90;;;;;;6249961;28;21523;-61
2022/03/17 04:21:59;;;;;;;26.37;23.40;;;6.90;72.00;;;;;;6249753;28;20522;-61
2022/03/17 04:25:03;;;;;;;27.13;22.47;;;6.90;72.40;;;;;;6250257;28;20499;-61
2022/03/17 04:28:08;;;;;;;26.03;23.00;;;6.80;72.40;;;;;;6249892;28;21130;-62
2022/03/17 04:31:11;;;;;;;29.20;23.60;;;6.80;72.40;;;;;;6250326;28;20482;-61
2022/03/17 04:34:14;;;;;;;27.03;23.40;;;6.80;72.40;;;;;;6250678;28;20464;-61
2022/03/17 04:37:17;;;;;;;31.87;24.30;;;6.80;73.20;;;;;;6249205;28;20471;-60
2022/03/17 04:40:20;;;;;;;26.00;22.13;;;6.70;72.70;;;;;;6249396;28;20822;-61
2022/03/17 04:43:25;;;;;;;27.83;24.07;;;6.70;73.00;;;;;;6249660;28;20850;-62
2022/03/17 04:46:28;;;;;;;27.73;23.43;;;6.70;73.30;;;;;;6249484;28;20491;-61
2022/03/17 04:49:31;;;;;;;28.90;24.20;;;6.70;73.30;;;;;;6250958;28;20964;-62
2022/03/17 04:55:56;;;;;;;28.43;23.00;;;6.60;73.60;;;;;;6225551;28;20473;-62
2022/03/17 04:59:01;;;;;;;29.47;23.87;;;6.60;73.70;;;;;;6229771;28;20492;-61
2022/03/17 05:02:04;;;;;;;29.90;24.70;;;6.70;73.80;;;;;;6262687;28;20467;-61
2022/03/17 05:05:08;;;;;;;31.57;25.07;;;6.60;73.80;;;;;;6279268;28;20477;-62
2022/03/17 05:08:11;;;;;;;35.80;25.97;;;6.60;74.00;;;;;;6278627;28;20481;-62
2022/03/17 05:11:14;;;;;;;31.87;25.20;;;6.60;74.10;;;;;;6278916;28;20475;-62
2022/03/17 05:14:19;;;;;;;30.60;25.50;;;6.60;74.00;;;;;;6278477;28;20510;-62
2022/03/17 05:17:22;;;;;;;33.47;27.60;;;6.60;74.30;;;;;;6279152;28;20778;-62
2022/03/17 05:20:25;;;;;;;29.33;26.23;;;6.50;74.90;;;;;;6278645;28;20573;-62
2022/03/17 05:23:30;;;;;;;34.17;27.03;;;6.50;76.20;;;;;;6278854;28;20466;-61
2022/03/17 05:26:33;;;;;;;33.87;27.03;;;6.50;75.60;;;;;;6278608;28;20474;-62
2022/03/17 05:29:43;;;;;;;32.70;28.10;;;6.50;76.00;;;;;;6278780;28;20985;-61
2022/03/17 05:32:47;;;;;;;31.03;25.83;;;6.50;76.00;;;;;;6279622;28;20471;-61
2022/03/17 05:35:51;;;;;;;34.00;28.60;;;6.50;76.40;;;;;;6275829;28;20481;-61
2022/03/17 05:38:54;;;;;;;32.50;27.40;;;6.50;76.60;;;;;;6253789;28;20473;-61
2022/03/17 05:41:57;;;;;;;34.20;27.33;;;6.50;76.50;;;;;;6253830;28;20560;-61
2022/03/17 05:45:01;;;;;;;36.40;28.30;;;6.50;76.40;;;;;;6253348;28;20468;-61
2022/03/17 05:48:06;;;;;;;34.03;29.00;;;6.60;76.50;;;;;;6253348;28;20480;-61
2022/03/17 05:51:09;;;;;;;31.63;26.80;;;6.60;76.30;;;;;;6253275;28;20483;-62
2022/03/17 05:54:13;;;;;;;35.30;27.33;;;6.60;76.50;;;;;;6253075;28;20484;-61
2022/03/17 05:57:16;;;;;;;34.23;28.30;;;6.70;76.50;;;;;;6253385;28;20479;-62
2022/03/17 06:00:23;;;;;;;31.17;27.77;;;6.70;76.50;;;;;;6254599;28;20541;-62
2022/03/17 06:03:26;;;;;;;36.70;29.23;;;6.70;76.60;;;;;;6277434;28;20471;-62
2022/03/17 06:06:29;;;;;;;34.67;27.87;;;6.80;76.80;;;;;;6257451;28;20551;-62
2022/03/17 06:09:32;;;;;;;31.77;28.07;;;6.90;76.90;;;;;;6252918;28;20479;-62
2022/03/17 06:12:36;;;;;;;36.30;27.33;;;6.90;76.70;;;;;;6252590;28;20475;-62
2022/03/17 06:15:41;;;;;;;31.07;26.47;;;7.00;76.40;;;;;;6253355;28;20470;-61
2022/03/17 06:18:44;;;;;;;42.07;28.93;;;7.10;76.20;;;;;;6252906;28;20533;-61
2022/03/17 06:21:47;;;;;;;36.87;28.60;;;7.10;75.90;;;;;;6252951;28;20449;-61
2022/03/17 06:24:50;;;;;;;32.60;26.47;;;7.20;75.60;;;;;;6252852;28;20428;-61
2022/03/17 06:27:54;;;;;;;33.63;28.80;;;7.30;75.50;;;;;;6252562;28;20827;-61
2022/03/17 06:31:01;;;;;;;35.77;27.90;;;7.40;75.30;;;;;;6252657;28;20485;-62
2022/03/17 06:34:06;;;;;;;37.73;28.97;;;7.40;74.60;;;;;;6252249;28;20566;-61
2022/03/17 06:37:09;;;;;;;34.80;29.93;;;7.50;74.40;;;;;;6252032;28;20469;-62
2022/03/17 06:40:13;;;;;;;46.40;29.97;;;7.70;74.20;;;;;;6252147;28;20486;-61
2022/03/17 06:43:17;;;;;;;44.57;28.90;;;7.80;73.40;;;;;;6252988;28;20772;-61
2022/03/17 06:46:21;;;;;;;32.27;26.13;;;8.00;73.10;;;;;;6252248;28;20921;-61
2022/03/17 06:49:25;;;;;;;32.20;27.30;;;8.20;71.40;;;;;;6252215;28;20477;-61
2022/03/17 06:52:29;;;;;;;32.17;26.63;;;8.40;70.10;;;;;;6252367;28;20468;-61
2022/03/17 06:55:33;;;;;;;28.73;25.30;;;8.60;69.20;;;;;;6252026;28;20541;-62
2022/03/17 06:58:37;;;;;;;30.23;26.93;;;8.80;68.20;;;;;;6251223;28;20488;-62
2022/03/17 07:01:41;;;;;;;33.77;24.93;;;8.90;67.10;;;;;;6265072;28;20485;-61
2022/03/17 07:04:45;;;;;;;33.37;26.50;;;9.00;66.80;;;;;;6266771;28;20478;-62
2022/03/17 07:07:48;;;;;;;28.60;25.60;;;9.20;66.30;;;;;;6276396;28;20534;-61
2022/03/17 07:10:51;;;;;;;31.30;26.97;;;9.50;66.00;;;;;;6276373;28;20484;-61
2022/03/17 07:13:54;;;;;;;30.60;25.90;;;9.70;64.40;;;;;;6275079;28;20520;-61
2022/03/17 07:16:58;;;;;;;33.10;26.97;;;10.00;61.70;;;;;;6276156;28;20473;-62
2022/03/17 07:20:05;;;;;;;30.57;27.20;;;10.20;60.90;;;;;;6276115;28;20479;-62
2022/03/17 07:23:08;;;;;;;29.60;25.47;;;10.40;59.70;;;;;;6276721;28;20496;-62
2022/03/17 07:26:11;;;;;;;30.77;25.80;;;10.70;59.60;;;;;;6276850;28;20503;-63
2022/03/17 07:29:15;;;;;;;29.73;26.43;;;11.00;58.80;;;;;;6276955;28;20481;-62
2022/03/17 07:32:19;;;;;;;29.53;26.20;;;11.20;57.80;;;;;;6275898;28;20477;-63
2022/03/17 07:35:25;;;;;;;26.63;24.03;;;11.60;56.80;;;;;;6275994;28;20473;-63
2022/03/17 07:38:29;;;;;;;26.03;22.40;;;12.00;55.80;;;;;;6250696;28;20475;-62
2022/03/17 07:41:32;;;;;;;22.90;19.93;;;12.40;54.90;;;;;;6250688;28;20544;-62
2022/03/17 07:44:37;;;;;;;22.43;20.03;;;13.00;52.80;;;;;;6250503;28;20489;-62
2022/03/17 07:47:47;;;;;;;22.00;19.70;;;13.40;51.30;;;;;;6250487;28;20537;-62
2022/03/17 07:50:50;;;;;;;20.50;18.13;;;13.70;49.90;;;;;;6250504;28;20540;-62
2022/03/17 07:53:53;;;;;;;24.63;19.60;;;14.10;48.70;;;;;;6249638;28;20812;-61
2022/03/17 07:56:57;;;;;;;22.33;19.93;;;14.50;47.70;;;;;;6248399;28;20479;-62
2022/03/17 08:00:00;;;;;;;21.73;19.50;;;15.00;46.60;;;;;;6248977;28;20505;-61
2022/03/17 08:03:05;;;;;;;21.67;19.37;;;15.50;45.60;;;;;;6251747;28;20471;-61
2022/03/17 08:06:08;;;;;;;21.03;18.97;;;15.80;44.20;;;;;;6252281;28;20963;-61
2022/03/17 08:09:11;;;;;;;23.60;21.20;;;16.20;43.80;;;;;;6246137;28;20483;-62
2022/03/17 08:12:15;;;;;;;21.00;19.00;;;16.50;42.90;;;;;;6249919;28;20486;-62
2022/03/17 08:15:18;;;;;;;19.17;17.27;;;16.90;41.50;;;;;;6250085;28;20483;-62
2022/03/17 08:18:24;;;;;;;21.17;19.00;;;17.30;40.70;;;;;;6249770;28;21068;-62
2022/03/17 08:21:27;;;;;;;21.23;19.03;;;17.80;39.80;;;;;;6249752;28;20964;-62
2022/03/17 08:24:30;;;;;;;21.70;19.70;;;18.10;38.90;;;;;;6250195;28;20951;-61
2022/03/17 08:27:33;;;;;;;21.00;18.90;;;18.60;38.20;;;;;;6250035;28;20486;-61
2022/03/17 08:30:38;;;;;;;21.63;19.43;;;19.00;37.30;;;;;;6249658;28;20893;-62
2022/03/17 08:33:42;;;;;;;22.67;20.27;;;19.50;36.80;;;;;;6249956;28;20235;-62
2022/03/17 08:36:46;;;;;;;31.03;28.00;;;19.70;35.80;;;;;;6249233;28;20215;-62
2022/03/17 08:39:49;;;;;;;25.98;23.40;;;20.10;35.40;;;;;;6249608;28;20441;-61
2022/03/17 08:42:52;;;;;;;26.03;23.60;;;20.30;35.20;;;;;;6249757;28;20490;-63
2022/03/17 08:49:23;;;;;;;27.77;25.20;;;20.40;34.90;;;;;;6227053;28;20225;-62
2022/03/17 08:52:27;;;;;;;28.60;25.73;;;20.80;34.70;;;;;;6225961;28;20232;-61
2022/03/17 08:55:30;;;;;;;27.43;24.73;;;21.00;34.40;;;;;;6225744;28;20345;-61
2022/03/17 08:58:35;;;;;;;29.60;26.60;;;21.40;34.10;;;;;;6245470;28;20289;-62
2022/03/17 09:01:38;;;;;;;28.60;25.70;;;21.70;33.30;;;;;;6263707;28;20243;-62
2022/03/17 09:04:43;;;;;;;28.83;26.20;;;21.80;32.90;;;;;;6269073;28;20224;-64
2022/03/17 09:07:46;;;;;;;30.37;27.40;;;21.00;33.60;;;;;;6249927;28;20224;-63
2022/03/17 09:10:50;;;;;;;29.07;26.47;;;21.10;34.10;;;;;;6249438;28;20554;-62
2022/03/17 09:13:53;;;;;;;31.80;28.60;;;21.90;33.40;;;;;;6237837;28;20248;-63
2022/03/17 09:16:56;;;;;;;31.50;28.60;;;22.40;32.30;;;;;;6225571;28;20255;-63
2022/03/17 09:20:01;;;;;;;29.50;26.70;;;22.50;32.10;;;;;;6225349;28;20550;-63
2022/03/17 09:23:05;;;;;;;28.07;25.57;;;22.40;31.40;;;;;;6225512;28;20230;-62
2022/03/17 09:26:08;;;;;;;28.83;26.13;;;22.80;31.80;;;;;;6225483;28;20316;-61
2022/03/17 09:29:11;;;;;;;30.50;27.73;;;23.60;30.60;;;;;;6225326;28;20572;-62
2022/03/17 09:32:15;;;;;;;27.73;25.43;;;23.80;30.30;;;;;;6226179;28;20229;-62
2022/03/17 09:35:20;;;;;;;29.70;27.00;;;24.30;29.90;;;;;;6225040;28;20241;-63
2022/03/17 09:38:24;;;;;;;29.70;26.97;;;25.10;29.10;;;;;;6252161;28;20791;-62
2022/03/17 09:41:33;;;;;;;29.67;27.10;;;26.20;28.60;;;;;;6253794;28;20568;-62
2022/03/17 09:44:36;;;;;;;28.83;26.13;;;26.30;27.10;;;;;;6253717;28;20247;-61
2022/03/17 09:47:41;;;;;;;29.67;27.10;;;25.50;27.40;;;;;;6253847;28;20286;-62
2022/03/17 09:50:48;;;;;;;28.30;25.90;;;24.40;28.50;;;;;;6253974;28;20232;-63
2022/03/17 09:53:53;;;;;;;28.50;25.90;;;25.00;28.50;;;;;;6254484;28;20239;-63
2022/03/17 09:56:56;;;;;;;29.10;26.50;;;26.30;27.70;;;;;;6253320;28;20581;-63
2022/03/17 10:00:00;;;;;;;30.50;28.10;;;27.90;25.90;;;;;;6253040;28;20247;-63
2022/03/17 10:03:06;;;;;;;30.90;28.20;;;28.90;24.60;;;;;;6228666;28;20232;-63
2022/03/17 10:06:12;;;;;;;29.50;26.90;;;28.90;24.60;;;;;;6246916;28;20307;-64
2022/03/17 10:09:16;;;;;;;30.97;28.27;;;29.80;24.00;;;;;;6253006;28;20236;-62
2022/03/17 10:12:21;;;;;;;30.83;28.10;;;31.30;23.40;;;;;;6252797;28;20683;-63
2022/03/17 10:15:24;;;;;;;30.67;27.60;;;31.90;22.40;;;;;;6252390;28;20232;-63
2022/03/17 10:18:27;;;;;;;31.40;28.75;;;32.30;21.90;;;;;;6245625;28;20593;-61
2022/03/17 10:21:33;;;;;;;31.08;28.58;;;33.40;20.90;;;;;;6234612;28;20225;-62
2022/03/17 10:24:37;;;;;;;30.00;27.52;;;32.90;20.90;;;;;;6252518;28;20228;-63
2022/03/17 10:27:45;;;;;;;31.15;28.75;;;33.00;20.70;;;;;;6236289;28;20244;-63
2022/03/17 10:30:48;;;;;;;30.45;28.05;;;31.80;20.80;;;;;;6227749;28;20229;-62
2022/03/17 10:33:54;;;;;;;29.95;27.63;;;31.20;21.40;;;;;;6227606;28;20216;-63
2022/03/17 10:37:08;;;;;;;29.77;27.48;;;31.20;21.30;;;;;;6249860;28;20224;-62
2022/03/17 10:40:11;;;;;;;28.75;26.35;;;31.50;21.40;;;;;;6251997;28;20228;-63
2022/03/17 10:43:16;;;;;;;28.48;25.95;;;32.40;20.80;;;;;;6251800;28;20542;-63
2022/03/17 10:46:20;;;;;;;29.83;27.35;;;32.60;20.30;;;;;;6252080;28;20690;-63
2022/03/17 10:49:24;;;;;;;28.17;25.98;;;32.40;20.50;;;;;;6251966;28;20355;-62
2022/03/17 10:52:47;;;;;;;28.08;25.88;;;32.40;20.40;;;;;;6251841;28;20242;-62
2022/03/17 10:55:50;;;;;;;30.02;27.55;;;32.90;19.90;;;;;;6251613;28;20323;-61
2022/03/17 10:58:53;;;;;;;25.25;22.98;;;31.70;20.50;;;;;;6251889;28;20235;-62
2022/03/17 11:02:21;;;;;;;26.15;23.83;;;31.80;19.70;;;;;;6270336;28;20223;-63
2022/03/17 11:05:24;;;;;;;24.48;22.20;;;32.10;19.20;;;;;;6265081;28;20535;-63
2022/03/17 11:08:29;;;;;;;23.98;22.15;;;32.40;19.20;;;;;;6251729;28;20238;-63
2022/03/17 11:11:32;;;;;;;21.25;19.65;;;33.10;18.60;;;;;;6251344;28;20227;-63
2022/03/17 11:14:39;;;;;;;22.85;21.00;;;33.20;18.10;;;;;;6251451;28;20232;-63
2022/03/17 11:17:47;;;;;;;22.63;20.63;;;34.00;17.90;;;;;;6251115;28;20290;-63
2022/03/17 11:21:13;;;;;;;19.02;17.40;;;34.30;17.80;;;;;;6251207;28;20291;-63
2022/03/17 11:24:23;;;;;;;19.05;17.38;;;34.30;15.80;;;;;;6246666;28;20519;-64
2022/03/17 11:27:27;;;;;;;20.00;18.40;;;34.50;15.80;;;;;;6251158;28;20227;-63
2022/03/17 11:30:32;;;;;;;19.60;17.98;;;34.90;16.10;;;;;;6251984;28;20246;-63
2022/03/17 11:33:39;;;;;;;19.83;18.23;;;35.00;15.90;;;;;;6253761;28;20228;-64
2022/03/17 11:37:14;;;;;;;18.92;17.42;;;34.90;15.40;;;;;;6252903;28;20566;-64
2022/03/17 11:40:20;;;;;;;19.73;18.02;;;35.30;15.20;;;;;;6258829;28;20228;-63
2022/03/17 11:43:23;;;;;;;19.08;17.48;;;34.90;15.60;;;;;;6269946;28;20238;-63
2022/03/17 11:46:37;;;;;;;20.90;19.30;;;34.60;15.40;;;;;;6266661;28;20230;-65
2022/03/17 11:49:46;;;;;;;20.40;18.70;;;34.20;16.00;;;;;;6252452;28;20227;-64
2022/03/17 11:52:52;;;;;;;18.35;16.85;;;33.70;16.30;;;;;;6251213;28;20223;-63
2022/03/17 11:55:57;;;;;;;21.75;19.92;;;34.00;16.30;;;;;;6251203;28;20539;-64
2022/03/17 11:59:00;;;;;;;20.33;18.73;;;34.50;16.10;;;;;;6251112;28;20298;-64
2022/03/17 12:02:13;;;;;;;21.98;20.08;;;34.10;16.20;;;;;;6251374;28;20228;-64
2022/03/17 12:05:17;;;;;;;21.23;19.52;;;32.00;17.10;;;;;;6250809;28;20671;-64
2022/03/17 12:08:25;;;;;;;19.23;17.77;;;31.80;17.30;;;;;;6251276;28;20235;-64
2022/03/17 12:11:31;;;;;;;19.63;17.60;;;30.90;17.90;;;;;;6250399;28;20228;-64
2022/03/17 12:14:49;;;;;;;19.97;18.07;;;30.10;18.10;;;;;;6250294;28;20679;-64
2022/03/17 12:18:15;;;;;;;19.27;17.50;;;29.00;19.20;;;;;;6249924;28;20236;-64
2022/03/17 12:21:18;;;;;;;21.47;18.70;;;29.50;19.50;;;;;;6226187;28;20232;-64
2022/03/17 12:24:33;;;;;;;19.60;18.10;;;29.90;19.40;;;;;;6226044;28;20232;-64
2022/03/17 12:27:40;;;;;;;18.70;17.20;;;30.30;18.30;;;;;;6217260;28;20224;-62
2022/03/17 12:30:44;;;;;;;18.33;16.58;;;30.50;18.30;;;;;;6221303;28;20236;-64
2022/03/17 12:33:48;;;;;;;19.50;17.92;;;31.30;18.20;;;;;;6226584;28;20239;-65
2022/03/17 12:36:51;;;;;;;18.23;16.73;;;31.90;17.90;;;;;;6236119;28;20223;-65
2022/03/17 12:40:05;;;;;;;18.50;17.10;;;31.80;17.90;;;;;;6250214;28;20259;-66
2022/03/17 12:43:15;;;;;;;18.85;17.45;;;32.50;17.40;;;;;;6250354;28;20231;-65
2022/03/17 12:46:18;;;;;;;19.52;18.02;;;34.00;16.60;;;;;;6250615;28;20224;-64
2022/03/17 12:49:22;;;;;;;18.65;17.20;;;34.90;15.70;;;;;;6250583;28;20751;-64
2022/03/17 12:52:26;;;;;;;17.17;15.77;;;34.50;15.80;;;;;;6250697;28;20246;-64
2022/03/17 12:55:30;;;;;;;17.27;15.88;;;34.60;15.70;;;;;;6250265;28;20238;-64
2022/03/17 12:58:41;;;;;;;17.65;16.25;;;34.80;15.50;;;;;;6249394;28;20242;-64
2022/03/17 13:01:46;;;;;;;17.13;15.85;;;35.30;15.00;;;;;;6250056;28;20228;-65
2022/03/17 13:04:51;;;;;;;18.15;16.48;;;35.00;14.80;;;;;;6250234;28;20224;-64
2022/03/17 13:07:54;;;;;;;18.65;16.98;;;33.80;15.10;;;;;;6249776;28;20228;-64
2022/03/17 13:14:24;;;;;;;16.17;14.93;;;31.50;16.40;;;;;;6253472;28;20278;-64
2022/03/17 13:17:34;;;;;;;17.40;15.90;;;31.60;16.70;;;;;;6252804;28;20579;-64
2022/03/17 13:20:37;;;;;;;16.58;15.18;;;30.90;16.90;;;;;;6254532;28;20224;-65
2022/03/17 13:23:41;;;;;;;14.52;13.32;;;31.40;16.30;;;;;;6253905;28;20773;-64
2022/03/17 13:26:59;;;;;;;17.55;14.55;;;32.00;15.90;;;;;;6258066;28;20287;-64
2022/03/17 13:30:11;;;;;;;15.35;14.07;;;31.30;15.80;;;;;;6258528;28;20304;-65
2022/03/17 13:33:16;;;;;;;15.23;13.95;;;30.30;16.60;;;;;;6257453;28;20232;-65
2022/03/17 13:36:23;;;;;;;15.83;14.40;;;29.80;17.00;;;;;;6254874;28;20239;-65
2022/03/17 13:39:32;;;;;;;17.30;15.80;;;28.50;17.90;;;;;;6254338;28;20668;-64
2022/03/17 13:42:36;;;;;;;18.27;16.77;;;26.90;19.10;;;;;;6254298;28;20243;-64
2022/03/17 13:45:42;;;;;;;17.00;15.20;;;24.50;20.90;;;;;;6254063;28;20243;-64
2022/03/17 13:48:45;;;;;;;16.20;14.90;;;23.30;21.90;;;;;;6253532;28;20228;-64
2022/03/17 13:51:52;;;;;;;20.63;15.03;;;22.80;22.40;;;;;;6253983;28;20286;-64
2022/03/17 13:54:57;;;;;;;16.60;14.97;;;22.00;23.20;;;;;;6254745;28;20204;-65
2022/03/17 13:58:14;;;;;;;17.30;14.63;;;21.80;23.30;;;;;;6254471;28;20232;-65
2022/03/17 14:01:20;;;;;;;17.70;14.77;;;21.50;23.60;;;;;;6253391;28;20232;-64
2022/03/17 14:04:28;;;;;;;15.80;14.20;;;21.10;24.00;;;;;;6250896;28;20239;-64
2022/03/17 14:07:31;;;;;;;15.77;14.27;;;20.90;24.20;;;;;;6247513;28;20239;-65
2022/03/17 14:10:34;;;;;;;19.10;13.67;;;20.60;24.50;;;;;;6252987;28;20243;-65
2022/03/17 14:13:39;;;;;;;14.03;12.83;;;20.40;24.90;;;;;;6252851;28;20247;-65
2022/03/17 14:16:45;;;;;;;13.07;11.87;;;19.80;25.00;;;;;;6252978;28;20251;-63
2022/03/17 14:19:48;;;;;;;13.00;11.40;;;19.00;25.00;;;;;;6252628;28;20221;-64
2022/03/17 14:26:28;;;;;;;12.93;11.87;;;18.80;25.60;;;;;;6217651;28;20222;-64
2022/03/17 14:29:32;;;;;;;12.87;11.77;;;18.80;25.70;;;;;;6201344;28;20242;-64
2022/03/17 14:32:38;;;;;;;12.90;11.70;;;18.70;25.60;;;;;;6226360;28;20225;-63
2022/03/17 14:35:42;;;;;;;11.10;10.10;;;18.30;26.00;;;;;;6228403;28;20240;-63
2022/03/17 14:38:47;;;;;;;11.53;10.43;;;17.90;26.40;;;;;;6252252;28;20236;-63
2022/03/17 14:41:52;;;;;;;12.77;10.90;;;17.90;26.70;;;;;;6252810;28;20788;-62
2022/03/17 14:44:57;;;;;;;13.23;10.43;;;17.40;26.80;;;;;;6251957;28;21005;-61
2022/03/17 14:48:01;;;;;;;12.53;10.80;;;17.30;27.00;;;;;;6252098;28;20489;-62
2022/03/17 14:51:05;;;;;;;11.03;9.93;;;17.30;27.00;;;;;;6251419;28;20483;-61
2022/03/17 14:54:09;;;;;;;10.67;9.67;;;17.30;27.10;;;;;;6251515;28;20493;-62
2022/03/17 14:57:12;;;;;;;11.67;10.47;;;17.10;27.10;;;;;;6251589;28;20491;-61
2022/03/17 15:00:16;;;;;;;10.83;9.73;;;17.00;27.30;;;;;;6253251;28;20818;-61
2022/03/17 15:03:20;;;;;;;11.23;10.17;;;16.90;27.50;;;;;;6276371;28;20478;-61
2022/03/17 15:06:26;;;;;;;12.23;10.17;;;16.80;27.40;;;;;;6257194;28;20482;-61
2022/03/17 15:09:29;;;;;;;16.07;9.93;;;16.60;27.60;;;;;;6250547;28;20480;-62
2022/03/17 15:12:33;;;;;;;11.30;10.17;;;16.40;27.70;;;;;;6251144;28;20467;-62
2022/03/17 15:15:36;;;;;;;10.40;9.40;;;16.20;27.90;;;;;;6250651;28;21021;-62
2022/03/17 15:18:40;;;;;;;11.40;10.30;;;16.10;28.00;;;;;;6249876;28;20483;-62
2022/03/17 15:21:43;;;;;;;11.10;9.17;;;16.10;28.50;;;;;;6251482;28;20451;-62
2022/03/17 15:24:47;;;;;;;11.03;8.77;;;16.10;28.50;;;;;;6251591;28;20770;-63
2022/03/17 15:31:13;;;;;;;9.80;8.90;;;15.80;28.40;;;;;;6250101;28;20463;-62
2022/03/17 15:34:19;;;;;;;9.80;8.50;;;15.80;28.40;;;;;;6248641;28;20767;-62
2022/03/17 15:37:22;;;;;;;8.77;7.87;;;15.40;28.60;;;;;;6246742;28;20487;-62
2022/03/17 15:40:31;;;;;;;12.70;10.17;;;15.30;29.10;;;;;;6250397;28;20483;-62
2022/03/17 15:43:37;;;;;;;11.70;8.77;;;15.20;29.10;;;;;;6250530;28;21038;-62
2022/03/17 15:46:40;;;;;;;12.77;9.70;;;15.00;29.30;;;;;;6250456;28;20482;-62
2022/03/17 15:49:45;;;;;;;9.57;8.57;;;14.90;29.50;;;;;;6250746;28;20474;-62
2022/03/17 15:52:49;;;;;;;9.73;8.73;;;14.90;29.70;;;;;;6250995;28;20475;-63
2022/03/17 15:55:54;;;;;;;14.40;9.33;;;15.00;29.80;;;;;;6250678;28;20955;-63
2022/03/17 15:58:57;;;;;;;11.23;10.07;;;14.90;30.00;;;;;;6250557;28;20490;-62
2022/03/17 16:02:00;;;;;;;10.13;9.20;;;14.90;30.10;;;;;;6266663;28;20476;-63
2022/03/17 16:05:07;;;;;;;9.80;8.80;;;14.90;30.30;;;;;;6266651;28;20498;-63
2022/03/17 16:08:10;;;;;;;8.70;7.80;;;14.80;30.30;;;;;;6250412;28;20467;-62